createdAt,value
2019-02-22T00:02:19.668Z,8.70
2019-02-22T00:04:50.574Z,8.69
2019-02-22T00:07:21.584Z,8.73
2019-02-22T00:09:52.652Z,8.77
2019-02-22T00:12:24.085Z,8.81
2019-02-22T00:14:55.080Z,8.85
2019-02-22T00:17:26.030Z,8.88
2019-02-22T00:19:57.025Z,8.93
2019-02-22T00:22:27.985Z,8.94
2019-02-22T00:24:59.071Z,8.92
2019-02-22T00:27:30.068Z,8.93
2019-02-22T00:30:01.028Z,8.89
2019-02-22T00:32:32.018Z,8.90
2019-02-22T00:35:03.126Z,8.89
2019-02-22T00:37:34.150Z,8.90
2019-02-22T00:40:06.155Z,8.94
2019-02-22T00:42:37.206Z,9.10
2019-02-22T00:45:08.216Z,9.08
2019-02-22T00:47:39.198Z,9.19
2019-02-22T00:50:10.252Z,9.17
2019-02-22T00:52:41.138Z,9.08
2019-02-22T00:55:12.026Z,9.03
2019-02-22T00:57:42.987Z,9.06
2019-02-22T01:00:14.122Z,9.05
2019-02-22T01:02:45.092Z,9.05
2019-02-22T01:05:16.136Z,9.01
2019-02-22T01:07:47.293Z,8.97
2019-02-22T01:10:18.212Z,8.94
2019-02-22T01:12:49.192Z,8.93
2019-02-22T01:15:20.230Z,8.93
2019-02-22T01:17:51.104Z,8.91
2019-02-22T01:20:22.132Z,8.89
2019-02-22T01:22:53.094Z,8.89
2019-02-22T01:25:24.255Z,8.87
2019-02-22T01:27:55.162Z,8.89
2019-02-22T01:30:26.034Z,8.87
2019-02-22T01:32:56.934Z,8.86
2019-02-22T01:35:27.944Z,8.89
2019-02-22T01:37:58.948Z,8.89
2019-02-22T01:40:29.988Z,8.86
2019-02-22T01:43:00.967Z,8.88
2019-02-22T01:45:31.875Z,8.88
2019-02-22T01:48:02.742Z,8.88
2019-02-22T01:50:33.688Z,8.85
2019-02-22T01:53:04.661Z,8.84
2019-02-22T01:55:36.045Z,8.85
2019-02-22T01:58:06.907Z,8.85
2019-02-22T02:00:38.159Z,8.87
2019-02-22T02:03:09.041Z,8.84
2019-02-22T02:05:39.987Z,8.83
2019-02-22T02:08:11.113Z,8.80
2019-02-22T02:10:42.463Z,8.82
2019-02-22T02:13:13.403Z,8.82
2019-02-22T02:15:44.447Z,8.80
2019-02-22T02:18:15.487Z,8.84
2019-02-22T02:20:46.728Z,8.87
2019-02-22T02:23:17.787Z,8.93
2019-02-22T02:25:48.869Z,8.99
2019-02-22T02:28:19.882Z,9.05
2019-02-22T02:30:50.838Z,9.10
2019-02-22T02:33:21.810Z,9.11
2019-02-22T02:35:52.859Z,9.13
2019-02-22T02:38:23.831Z,9.12
2019-02-22T02:41:06.858Z,9.16
2019-02-22T02:43:27.433Z,9.16
2019-02-22T02:45:58.302Z,9.16
2019-02-22T02:48:29.309Z,9.08
2019-02-22T02:51:00.262Z,9.03
2019-02-22T02:53:31.280Z,9.03
2019-02-22T02:56:02.258Z,9.10
2019-02-22T02:58:33.284Z,9.15
2019-02-22T03:01:04.255Z,9.19
2019-02-22T03:03:35.208Z,9.17
2019-02-22T03:06:16.775Z,8.96
2019-02-22T03:08:47.800Z,8.75
2019-02-22T03:11:21.108Z,8.60
2019-02-22T03:13:51.296Z,8.49
2019-02-22T03:16:22.208Z,8.46
2019-02-22T03:18:53.266Z,8.38
2019-02-22T03:21:24.221Z,8.37
2019-02-22T03:23:55.090Z,8.36
2019-02-22T03:26:26.032Z,8.43
2019-02-22T03:28:56.932Z,8.37
2019-02-22T03:31:28.001Z,8.38
2019-02-22T03:33:58.914Z,8.40
2019-02-22T03:36:29.904Z,8.45
2019-02-22T03:39:00.869Z,8.47
2019-02-22T03:41:33.458Z,8.49
2019-02-22T03:44:04.680Z,8.50
2019-02-22T03:46:35.649Z,8.55
2019-02-22T03:49:06.571Z,8.57
2019-02-22T03:51:37.646Z,8.58
2019-02-22T03:54:08.584Z,8.63
2019-02-22T03:56:40.036Z,8.64
2019-02-22T03:59:11.061Z,8.67
2019-02-22T04:01:42.089Z,8.71
2019-02-22T04:04:13.393Z,8.75
2019-02-22T04:06:44.463Z,8.78
2019-02-22T04:09:15.357Z,8.77
2019-02-22T04:11:46.597Z,8.80
2019-02-22T04:14:17.635Z,8.80
2019-02-22T04:16:48.588Z,8.83
2019-02-22T04:19:19.624Z,8.85
2019-02-22T04:21:50.716Z,8.86
2019-02-22T04:24:21.725Z,8.92
2019-02-22T04:26:52.680Z,8.97
2019-02-22T04:29:23.662Z,8.94
2019-02-22T04:31:54.644Z,8.88
2019-02-22T04:34:25.514Z,8.90
2019-02-22T04:36:56.392Z,8.90
2019-02-22T04:39:27.292Z,8.87
2019-02-22T04:41:58.521Z,8.89
2019-02-22T04:44:29.456Z,8.91
2019-02-22T04:47:00.442Z,8.89
2019-02-22T04:49:31.327Z,8.89
2019-02-22T04:52:02.224Z,8.92
2019-02-22T04:54:33.145Z,8.94
2019-02-22T04:57:04.204Z,8.94
2019-02-22T04:59:35.230Z,8.92
2019-02-22T05:02:06.431Z,8.92
2019-02-22T05:04:37.453Z,8.90
2019-02-22T05:07:08.493Z,8.90
2019-02-22T05:09:39.511Z,8.86
2019-02-22T05:12:11.342Z,8.86
2019-02-22T05:14:42.469Z,8.88
2019-02-22T05:17:13.402Z,8.88
2019-02-22T05:19:44.287Z,8.86
2019-02-22T05:22:18.263Z,8.88
2019-02-22T05:24:48.624Z,8.89
2019-02-22T05:27:21.277Z,8.86
2019-02-22T05:29:52.265Z,8.80
2019-02-22T05:32:23.333Z,8.81
2019-02-22T05:34:54.304Z,8.80
2019-02-22T05:37:25.245Z,8.79
2019-02-22T05:39:56.375Z,8.81
2019-02-22T05:42:28.691Z,8.78
2019-02-22T05:44:59.724Z,8.78
2019-02-22T05:47:30.919Z,8.78
2019-02-22T05:50:01.926Z,8.76
2019-02-22T05:52:33.255Z,8.86
2019-02-22T05:57:40.227Z,8.84
2019-02-22T06:00:11.372Z,8.84
2019-02-22T06:02:42.350Z,8.83
2019-02-22T06:05:13.327Z,8.82
2019-02-22T06:07:44.294Z,8.81
2019-02-22T06:10:15.363Z,8.82
2019-02-22T06:12:46.471Z,8.79
2019-02-22T06:15:17.497Z,8.79
2019-02-22T06:17:48.501Z,8.78
2019-02-22T06:20:19.540Z,8.77
2019-02-22T06:22:50.474Z,8.76
2019-02-22T06:25:21.462Z,8.77
2019-02-22T06:27:52.360Z,8.78
2019-02-22T06:30:23.438Z,8.67
2019-02-22T06:32:54.411Z,8.65
2019-02-22T06:35:25.291Z,8.65
2019-02-22T06:37:56.272Z,8.65
2019-02-22T06:40:27.210Z,8.67
2019-02-22T06:42:58.249Z,8.72
2019-02-22T06:45:29.196Z,8.75
2019-02-22T06:48:00.169Z,8.77
2019-02-22T06:50:34.038Z,8.77
2019-02-22T06:53:04.099Z,8.73
2019-02-22T06:55:35.051Z,8.72
2019-02-22T06:58:06.001Z,8.74
2019-02-22T07:00:36.943Z,8.74
2019-02-22T07:03:07.913Z,8.70
2019-02-22T07:05:38.949Z,8.74
2019-02-22T07:08:09.995Z,8.79
2019-02-22T07:10:57.441Z,8.83
2019-02-22T07:13:28.449Z,8.87
2019-02-22T07:15:59.467Z,8.95
2019-02-22T07:18:30.492Z,9.00
2019-02-22T07:21:01.444Z,9.07
2019-02-22T07:23:32.338Z,9.09
2019-02-22T07:26:03.297Z,9.15
2019-02-22T07:28:34.267Z,9.13
2019-02-22T07:31:05.311Z,9.16
2019-02-22T07:33:36.244Z,9.19
2019-02-22T07:36:07.327Z,9.16
2019-02-22T07:38:38.297Z,9.16
2019-02-22T07:41:09.770Z,9.17
2019-02-22T07:43:40.849Z,9.26
2019-02-22T07:46:11.823Z,9.27
2019-02-22T07:48:42.778Z,9.32
2019-02-22T07:51:13.683Z,9.35
2019-02-22T07:53:44.581Z,9.44
2019-02-22T07:56:15.456Z,9.48
2019-02-22T07:58:46.506Z,9.50
2019-02-22T08:01:17.521Z,9.46
2019-02-22T08:03:48.473Z,9.43
2019-02-22T08:06:19.563Z,9.50
2019-02-22T08:08:50.581Z,9.49
2019-02-22T08:11:21.582Z,9.56
2019-02-22T08:13:52.548Z,9.75
2019-02-22T08:16:23.487Z,9.81
2019-02-22T08:19:01.469Z,9.86
2019-02-22T08:21:27.338Z,9.91
2019-02-22T08:23:58.555Z,9.97
2019-02-22T08:26:29.582Z,10.02
2019-02-22T08:29:00.675Z,10.11
2019-02-22T08:31:31.564Z,10.30
2019-02-22T08:34:02.546Z,10.45
2019-02-22T08:36:33.539Z,10.56
2019-02-22T08:39:04.880Z,10.77
2019-02-22T08:41:35.928Z,10.98
2019-02-22T08:44:06.896Z,11.12
2019-02-22T08:46:37.861Z,11.40
2019-02-22T08:49:08.743Z,11.48
2019-02-22T08:51:39.888Z,11.69
2019-02-22T08:54:10.784Z,11.66
2019-02-22T08:56:41.798Z,11.55
2019-02-22T08:59:12.787Z,11.45
2019-02-22T09:01:43.670Z,11.32
2019-02-22T09:04:14.626Z,11.27
2019-02-22T09:06:45.592Z,11.37
2019-02-22T09:09:16.591Z,11.40
2019-02-22T09:11:47.722Z,11.11
2019-02-22T09:14:18.786Z,11.26
2019-02-22T09:16:49.834Z,11.27
2019-02-22T09:19:20.775Z,11.36
2019-02-22T09:21:51.819Z,11.55
2019-02-22T09:24:22.804Z,11.76
2019-02-22T09:26:54.205Z,11.91
2019-02-22T09:29:25.371Z,12.22
2019-02-22T09:31:56.316Z,12.70
2019-02-22T09:34:27.292Z,13.03
2019-02-22T09:36:59.007Z,13.18
2019-02-22T09:39:29.994Z,13.57
2019-02-22T09:42:01.037Z,13.58
2019-02-22T09:44:31.977Z,13.61
2019-02-22T09:47:02.934Z,13.48
2019-02-22T09:49:33.924Z,13.08
2019-02-22T09:52:04.956Z,12.81
2019-02-22T09:54:35.935Z,12.45
2019-02-22T09:57:07.488Z,12.41
2019-02-22T09:59:38.504Z,12.52
2019-02-22T10:02:09.479Z,12.46
2019-02-22T10:04:40.488Z,12.33
2019-02-22T10:07:11.546Z,12.23
2019-02-22T10:09:42.401Z,12.08
2019-02-22T10:12:13.379Z,12.15
2019-02-22T10:14:44.356Z,13.85
2019-02-22T10:17:15.445Z,15.12
2019-02-22T10:19:46.374Z,16.60
2019-02-22T10:22:17.382Z,16.06
2019-02-22T10:24:48.331Z,15.00
2019-02-22T10:27:19.343Z,14.28
2019-02-22T10:29:50.409Z,13.83
2019-02-22T10:32:21.325Z,13.41
2019-02-22T10:34:52.308Z,13.08
2019-02-22T10:37:23.351Z,12.80
2019-02-22T10:39:54.396Z,12.64
2019-02-22T10:42:25.387Z,12.71
2019-02-22T10:44:56.426Z,12.59
2019-02-22T10:47:27.455Z,12.51
2019-02-22T10:49:58.544Z,12.22
2019-02-22T10:52:29.552Z,11.87
2019-02-22T10:55:00.697Z,11.90
2019-02-22T10:57:31.795Z,11.93
2019-02-22T11:00:02.911Z,12.03
2019-02-22T11:02:34.010Z,12.04
2019-02-22T11:05:05.126Z,12.13
2019-02-22T11:07:37.262Z,12.09
2019-02-22T11:10:13.111Z,12.18
2019-02-22T11:12:44.238Z,12.16
2019-02-22T11:15:15.629Z,12.13
2019-02-22T11:17:46.634Z,11.86
2019-02-22T11:20:17.559Z,11.98
2019-02-22T11:22:48.604Z,12.02
2019-02-22T11:25:19.543Z,12.17
2019-02-22T11:27:50.631Z,12.13
2019-02-22T11:30:21.676Z,12.23
2019-02-22T11:32:52.640Z,12.42
2019-02-22T11:35:23.695Z,12.46
2019-02-22T11:37:54.895Z,12.53
2019-02-22T11:40:25.821Z,12.58
2019-02-22T11:42:56.884Z,12.48
2019-02-22T11:45:28.073Z,12.31
2019-02-22T11:48:08.651Z,12.39
2019-02-22T11:50:31.729Z,12.49
2019-02-22T11:53:02.617Z,12.49
2019-02-22T11:55:33.823Z,12.42
2019-02-22T11:58:04.818Z,12.40
2019-02-22T12:00:35.763Z,12.44
2019-02-22T12:03:21.140Z,12.20
2019-02-22T12:05:39.458Z,11.99
2019-02-22T12:08:10.422Z,11.95
2019-02-22T12:10:41.514Z,11.96
2019-02-22T12:13:12.460Z,12.15
2019-02-22T12:15:43.562Z,12.17
2019-02-22T12:18:14.463Z,12.22
2019-02-22T12:20:45.616Z,12.22
2019-02-22T12:23:16.635Z,12.21
2019-02-22T12:25:47.660Z,12.09
2019-02-22T12:28:18.760Z,12.15
2019-02-22T12:30:49.865Z,12.27
2019-02-22T12:33:21.126Z,12.32
2019-02-22T12:35:52.118Z,12.40
2019-02-22T12:38:23.437Z,12.55
2019-02-22T12:40:54.458Z,12.57
2019-02-22T12:43:25.434Z,12.40
2019-02-22T12:45:56.452Z,12.36
2019-02-22T12:48:27.606Z,12.21
2019-02-22T12:50:58.766Z,11.97
2019-02-22T12:53:29.801Z,11.90
2019-02-22T12:56:00.644Z,11.87
2019-02-22T12:58:31.669Z,11.84
2019-02-22T13:01:02.712Z,11.83
2019-02-22T13:03:33.689Z,11.92
2019-02-22T13:06:04.704Z,11.82
2019-02-22T13:08:35.872Z,11.93
2019-02-22T13:11:07.007Z,11.90
2019-02-22T13:13:38.029Z,11.80
2019-02-22T13:16:09.012Z,11.75
2019-02-22T13:18:39.902Z,11.63
2019-02-22T13:21:10.846Z,11.54
2019-02-22T13:23:41.750Z,11.42
2019-02-22T13:26:12.661Z,11.29
2019-02-22T13:28:43.709Z,11.26
2019-02-22T13:31:14.694Z,11.20
2019-02-22T13:33:45.683Z,11.21
2019-02-22T13:36:16.712Z,11.08
2019-02-22T13:38:47.629Z,10.98
2019-02-22T13:41:18.601Z,10.98
2019-02-22T13:43:49.637Z,10.96
2019-02-22T13:46:20.810Z,11.01
2019-02-22T13:48:51.829Z,11.01
2019-02-22T13:51:22.907Z,11.03
2019-02-22T13:53:53.842Z,10.99
2019-02-22T13:56:29.547Z,10.99
2019-02-22T13:58:57.486Z,10.95
2019-02-22T14:01:28.367Z,10.95
2019-02-22T14:03:59.430Z,11.04
2019-02-22T14:06:30.391Z,11.09
2019-02-22T14:09:01.647Z,11.22
2019-02-22T14:11:32.490Z,11.31
2019-02-22T14:14:03.384Z,11.43
2019-02-22T14:16:35.936Z,11.47
2019-02-22T14:19:06.959Z,11.54
2019-02-22T14:21:37.910Z,11.56
2019-02-22T14:24:09.814Z,11.72
2019-02-22T14:26:40.755Z,11.68
2019-02-22T14:29:11.706Z,11.68
2019-02-22T14:31:42.741Z,11.82
2019-02-22T14:34:13.618Z,11.83
2019-02-22T14:36:45.135Z,11.87
2019-02-22T14:39:16.172Z,11.86
2019-02-22T14:41:47.106Z,11.89
2019-02-22T14:44:18.155Z,11.90
2019-02-22T14:46:49.289Z,11.91
2019-02-22T14:49:20.150Z,11.89
2019-02-22T14:51:51.080Z,11.97
2019-02-22T14:54:22.201Z,12.03
2019-02-22T14:56:53.181Z,11.96
2019-02-22T14:59:24.182Z,11.98
2019-02-22T15:01:55.125Z,12.00
2019-02-22T15:04:26.090Z,11.96
2019-02-22T15:06:57.128Z,12.06
2019-02-22T15:09:28.151Z,12.23
2019-02-22T15:11:59.171Z,12.50
2019-02-22T15:14:30.138Z,12.73
2019-02-22T15:17:02.973Z,12.94
2019-02-22T15:19:34.001Z,13.08
2019-02-22T15:22:05.004Z,13.52
2019-02-22T15:24:36.001Z,13.54
2019-02-22T15:27:06.974Z,14.38
2019-02-22T15:29:37.881Z,15.31
2019-02-22T15:32:08.941Z,15.51
2019-02-22T15:34:39.774Z,14.74
2019-02-22T15:37:10.742Z,13.88
2019-02-22T15:39:41.751Z,12.95
2019-02-22T15:42:12.948Z,12.58
2019-02-22T15:44:44.253Z,12.29
2019-02-22T15:47:15.193Z,11.95
2019-02-22T15:49:48.499Z,11.83
2019-02-22T15:52:18.717Z,11.67
2019-02-22T15:54:49.681Z,11.57
2019-02-22T15:57:20.803Z,11.48
2019-02-22T15:59:51.782Z,11.40
2019-02-22T16:02:22.685Z,11.32
2019-02-22T16:04:55.382Z,11.19
2019-02-22T16:07:26.365Z,11.11
2019-02-22T16:09:57.306Z,11.06
2019-02-22T16:12:28.333Z,11.16
2019-02-22T16:14:59.237Z,11.12
2019-02-22T16:17:30.333Z,10.85
2019-02-22T16:20:01.499Z,10.71
2019-02-22T16:22:32.461Z,10.59
2019-02-22T16:25:03.451Z,10.55
2019-02-22T16:27:34.314Z,10.53
2019-02-22T16:30:11.603Z,10.40
2019-02-22T16:32:42.535Z,10.29
2019-02-22T16:35:14.040Z,10.16
2019-02-22T16:37:45.032Z,10.03
2019-02-22T16:40:16.126Z,9.78
2019-02-22T16:42:47.203Z,9.61
2019-02-22T16:45:18.297Z,9.44
2019-02-22T16:47:49.474Z,9.30
2019-02-22T16:50:20.435Z,9.21
2019-02-22T16:52:51.378Z,9.13
2019-02-22T16:55:22.491Z,9.07
2019-02-22T16:57:53.560Z,8.98
2019-02-22T17:00:24.423Z,8.87
2019-02-22T17:02:55.473Z,8.79
2019-02-22T17:05:26.314Z,8.69
2019-02-22T17:07:57.294Z,8.63
2019-02-22T17:10:28.316Z,8.56
2019-02-22T17:12:59.257Z,8.53
2019-02-22T17:15:30.289Z,8.52
2019-02-22T17:18:01.407Z,8.51
2019-02-22T17:20:32.384Z,8.51
2019-02-22T17:23:03.370Z,8.49
2019-02-22T17:25:34.390Z,8.48
2019-02-22T17:28:05.437Z,8.45
2019-02-22T17:30:36.461Z,8.42
2019-02-22T17:33:07.536Z,8.40
2019-02-22T17:35:38.400Z,8.36
2019-02-22T17:38:09.298Z,8.29
2019-02-22T17:40:40.192Z,8.21
2019-02-22T17:43:11.151Z,8.07
2019-02-22T17:45:42.173Z,7.94
2019-02-22T17:48:13.038Z,7.81
2019-02-22T17:50:44.002Z,7.64
2019-02-22T17:53:15.017Z,7.51
2019-02-22T17:55:45.934Z,7.36
2019-02-22T17:58:24.090Z,7.21
2019-02-22T18:00:49.857Z,7.12
2019-02-22T18:03:20.797Z,7.08
2019-02-22T18:05:51.799Z,7.06
2019-02-22T18:08:22.757Z,7.02
2019-02-22T18:10:59.211Z,6.88
2019-02-22T18:13:30.258Z,6.82
2019-02-22T18:16:01.287Z,6.77
2019-02-22T18:18:32.218Z,6.68
2019-02-22T18:21:03.356Z,6.60
2019-02-22T18:23:34.399Z,6.47
2019-02-22T18:26:05.450Z,6.43
2019-02-22T18:28:36.499Z,6.37
2019-02-22T18:31:07.372Z,6.29
2019-02-22T18:33:38.243Z,6.26
2019-02-22T18:36:09.160Z,6.20
2019-02-22T18:38:40.186Z,6.13
2019-02-22T18:41:11.090Z,6.15
2019-02-22T18:43:42.127Z,6.06
2019-02-22T18:46:13.141Z,5.93
2019-02-22T18:48:44.095Z,5.86
2019-02-22T18:51:14.946Z,5.75
2019-02-22T18:53:46.016Z,5.68
2019-02-22T18:56:17.282Z,5.72
2019-02-22T18:58:48.326Z,5.67
2019-02-22T19:01:19.244Z,5.66
2019-02-22T19:03:50.364Z,5.58
2019-02-22T19:06:21.251Z,5.59
2019-02-22T19:08:52.318Z,5.48
2019-02-22T19:11:23.216Z,5.35
2019-02-22T19:13:54.179Z,5.25
2019-02-22T19:16:25.067Z,5.14
2019-02-22T19:18:56.064Z,5.11
2019-02-22T19:21:26.969Z,5.07
2019-02-22T19:23:57.930Z,5.05
2019-02-22T19:26:28.999Z,5.04
2019-02-22T19:28:59.881Z,5.06
2019-02-22T19:31:30.814Z,4.95
2019-02-22T19:34:01.778Z,4.82
2019-02-22T19:36:32.914Z,4.73
2019-02-22T19:39:04.461Z,4.70
2019-02-22T19:41:35.522Z,4.68
2019-02-22T19:44:06.440Z,4.71
2019-02-22T19:46:37.475Z,4.65
2019-02-22T19:49:08.344Z,4.58
2019-02-22T19:51:39.402Z,4.51
2019-02-22T19:54:10.415Z,4.49
2019-02-22T19:56:41.398Z,4.51
2019-02-22T19:59:12.376Z,4.54
2019-02-22T20:01:43.372Z,4.52
2019-02-22T20:04:14.411Z,4.41
2019-02-22T20:06:45.449Z,4.27
2019-02-22T20:09:16.445Z,4.24
2019-02-22T20:11:48.701Z,4.26
2019-02-22T20:14:19.779Z,4.10
2019-02-22T20:16:50.789Z,4.05
2019-02-22T20:19:21.835Z,3.98
2019-02-22T20:21:52.697Z,3.93
2019-02-22T20:24:23.681Z,3.78
2019-02-22T20:26:54.706Z,3.67
2019-02-22T20:29:25.609Z,3.63
2019-02-22T20:31:56.553Z,3.57
2019-02-22T20:34:27.668Z,3.48
2019-02-22T20:36:58.532Z,3.45
2019-02-22T20:39:29.577Z,3.54
2019-02-22T20:42:00.539Z,3.49
2019-02-22T20:44:31.599Z,3.55
2019-02-22T20:47:02.600Z,3.55
2019-02-22T20:49:33.871Z,3.65
2019-02-22T20:52:04.820Z,3.60
2019-02-22T20:54:35.689Z,3.55
2019-02-22T20:57:06.653Z,3.48
2019-02-22T20:59:37.568Z,3.45
2019-02-22T21:02:08.586Z,3.31
2019-02-22T21:04:39.606Z,3.32
2019-02-22T21:07:10.744Z,3.28
2019-02-22T21:09:41.810Z,3.36
2019-02-22T21:12:12.972Z,3.31
2019-02-22T21:14:43.843Z,3.32
2019-02-22T21:17:14.827Z,3.36
2019-02-22T21:19:45.677Z,3.29
2019-02-22T21:22:16.915Z,3.23
2019-02-22T21:24:48.120Z,3.12
2019-02-22T21:27:18.980Z,3.05
2019-02-22T21:29:50.005Z,2.99
2019-02-22T21:32:20.896Z,2.80
2019-02-22T21:34:51.861Z,2.63
2019-02-22T21:37:23.309Z,2.48
2019-02-22T21:39:54.297Z,2.34
2019-02-22T21:42:25.153Z,2.35
2019-02-22T21:44:56.136Z,2.32
2019-02-22T21:47:27.144Z,2.27
2019-02-22T21:49:58.105Z,2.25
2019-02-22T21:52:29.237Z,2.29
2019-02-22T21:55:00.321Z,2.42
2019-02-22T21:57:31.249Z,2.50
2019-02-22T22:00:02.211Z,2.48
2019-02-22T22:02:33.296Z,2.55
2019-02-22T22:05:04.433Z,2.62
2019-02-22T22:07:35.272Z,2.63
2019-02-22T22:10:08.163Z,2.56
2019-02-22T22:12:39.212Z,2.49
2019-02-22T22:15:16.226Z,2.38
2019-02-22T22:17:47.179Z,2.34
2019-02-22T22:20:18.146Z,2.30
2019-02-22T22:22:49.229Z,2.20
2019-02-22T22:25:20.304Z,2.13
2019-02-22T22:27:51.424Z,2.06
2019-02-22T22:30:22.446Z,1.96
2019-02-22T22:32:53.520Z,1.82
2019-02-22T22:35:24.562Z,1.77
2019-02-22T22:37:55.512Z,1.69
2019-02-22T22:40:26.590Z,1.60
2019-02-22T22:42:57.571Z,1.79
2019-02-22T22:45:28.605Z,2.00
2019-02-22T22:47:59.465Z,2.07
2019-02-22T22:50:30.375Z,2.13
2019-02-22T22:53:02.056Z,2.08
2019-02-22T22:55:33.020Z,2.02
2019-02-22T22:58:03.989Z,2.09
2019-02-22T23:00:45.863Z,2.08
2019-02-22T23:03:17.190Z,2.04
2019-02-22T23:05:48.267Z,2.01
2019-02-22T23:08:20.976Z,1.98
2019-02-22T23:10:52.018Z,1.93
2019-02-22T23:13:23.107Z,1.95
2019-02-22T23:15:54.139Z,1.96
2019-02-22T23:18:25.191Z,1.98
2019-02-22T23:20:56.106Z,1.89
2019-02-22T23:23:27.146Z,1.77
2019-02-22T23:25:58.092Z,1.73
2019-02-22T23:28:28.987Z,1.66
2019-02-22T23:30:59.950Z,1.60
2019-02-22T23:33:30.944Z,1.69
2019-02-22T23:36:01.896Z,1.77
2019-02-22T23:38:32.830Z,1.89
2019-02-22T23:41:03.714Z,2.02
2019-02-22T23:43:34.839Z,2.12
2019-02-22T23:46:05.782Z,2.18
2019-02-22T23:48:36.713Z,2.21
2019-02-22T23:51:07.756Z,2.23
2019-02-22T23:53:38.743Z,2.26
2019-02-22T23:56:09.807Z,2.23
2019-02-22T23:58:40.781Z,2.18
